sensor_id;sensor_type;location;lat;lon;timestamp;P1;durP1;ratioP1;P2;durP2;ratioP2
26102;SDS011;32703;49.182;9.042;2022-11-12T00:02:10;7.03;;;4.00;;
26102;SDS011;32703;49.182;9.042;2022-11-12T00:04:35;4.47;;;2.90;;
26102;SDS011;32703;49.182;9.042;2022-11-12T00:07:01;8.43;;;4.07;;
26102;SDS011;32703;49.182;9.042;2022-11-12T00:09:26;6.33;;;3.37;;
26102;SDS011;32703;49.182;9.042;2022-11-12T00:11:52;5.77;;;3.40;;
26102;SDS011;32703;49.182;9.042;2022-11-12T00:14:17;5.13;;;3.00;;
26102;SDS011;32703;49.182;9.042;2022-11-12T00:16:43;4.47;;;2.80;;
26102;SDS011;32703;49.182;9.042;2022-11-12T00:19:08;4.67;;;2.87;;
26102;SDS011;32703;49.182;9.042;2022-11-12T00:21:34;6.30;;;3.30;;
26102;SDS011;32703;49.182;9.042;2022-11-12T00:23:59;5.30;;;3.03;;
26102;SDS011;32703;49.182;9.042;2022-11-12T00:26:25;4.13;;;2.50;;
26102;SDS011;32703;49.182;9.042;2022-11-12T00:28:50;5.03;;;2.83;;
26102;SDS011;32703;49.182;9.042;2022-11-12T00:31:16;3.83;;;2.80;;
26102;SDS011;32703;49.182;9.042;2022-11-12T00:33:42;4.80;;;3.17;;
26102;SDS011;32703;49.182;9.042;2022-11-12T00:36:08;5.00;;;2.90;;
26102;SDS011;32703;49.182;9.042;2022-11-12T00:38:34;4.93;;;2.90;;
26102;SDS011;32703;49.182;9.042;2022-11-12T00:41:00;4.40;;;3.30;;
26102;SDS011;32703;49.182;9.042;2022-11-12T00:43:26;5.90;;;3.17;;
26102;SDS011;32703;49.182;9.042;2022-11-12T00:45:52;4.23;;;2.80;;
26102;SDS011;32703;49.182;9.042;2022-11-12T00:48:17;4.70;;;2.60;;
26102;SDS011;32703;49.182;9.042;2022-11-12T00:50:43;4.83;;;2.90;;
26102;SDS011;32703;49.182;9.042;2022-11-12T00:53:08;6.00;;;3.37;;
26102;SDS011;32703;49.182;9.042;2022-11-12T00:55:34;4.40;;;2.67;;
26102;SDS011;32703;49.182;9.042;2022-11-12T00:58:00;4.57;;;2.67;;
26102;SDS011;32703;49.182;9.042;2022-11-12T01:00:25;7.17;;;3.57;;
26102;SDS011;32703;49.182;9.042;2022-11-12T01:02:51;19.03;;;5.83;;
26102;SDS011;32703;49.182;9.042;2022-11-12T01:05:17;15.23;;;5.30;;
26102;SDS011;32703;49.182;9.042;2022-11-12T01:07:43;11.27;;;4.97;;
26102;SDS011;32703;49.182;9.042;2022-11-12T01:10:09;6.37;;;3.67;;
26102;SDS011;32703;49.182;9.042;2022-11-12T01:12:35;5.53;;;3.60;;
26102;SDS011;32703;49.182;9.042;2022-11-12T01:15:02;7.87;;;4.03;;
26102;SDS011;32703;49.182;9.042;2022-11-12T01:17:29;7.03;;;3.80;;
26102;SDS011;32703;49.182;9.042;2022-11-12T01:19:55;5.30;;;3.03;;
26102;SDS011;32703;49.182;9.042;2022-11-12T01:22:21;4.83;;;3.10;;
26102;SDS011;32703;49.182;9.042;2022-11-12T01:24:46;6.43;;;2.93;;
26102;SDS011;32703;49.182;9.042;2022-11-12T01:27:12;4.97;;;2.73;;
26102;SDS011;32703;49.182;9.042;2022-11-12T01:29:37;6.60;;;3.27;;
26102;SDS011;32703;49.182;9.042;2022-11-12T01:32:04;3.20;;;2.20;;
26102;SDS011;32703;49.182;9.042;2022-11-12T01:34:30;3.50;;;2.20;;
26102;SDS011;32703;49.182;9.042;2022-11-12T01:36:55;4.30;;;2.73;;
26102;SDS011;32703;49.182;9.042;2022-11-12T01:39:21;3.53;;;2.23;;
26102;SDS011;32703;49.182;9.042;2022-11-12T01:41:46;3.07;;;2.33;;
26102;SDS011;32703;49.182;9.042;2022-11-12T01:44:19;3.70;;;2.00;;
26102;SDS011;32703;49.182;9.042;2022-11-12T01:49:41;3.33;;;2.10;;
26102;SDS011;32703;49.182;9.042;2022-11-12T01:52:19;2.67;;;1.93;;
26102;SDS011;32703;49.182;9.042;2022-11-12T01:54:51;2.93;;;2.13;;
26102;SDS011;32703;49.182;9.042;2022-11-12T01:57:21;4.00;;;2.30;;
26102;SDS011;32703;49.182;9.042;2022-11-12T01:59:52;2.93;;;1.83;;
26102;SDS011;32703;49.182;9.042;2022-11-12T02:02:24;3.20;;;1.70;;
26102;SDS011;32703;49.182;9.042;2022-11-12T02:04:50;2.27;;;1.70;;
26102;SDS011;32703;49.182;9.042;2022-11-12T02:07:16;2.67;;;1.77;;
26102;SDS011;32703;49.182;9.042;2022-11-12T02:09:42;4.03;;;2.37;;
26102;SDS011;32703;49.182;9.042;2022-11-12T02:12:08;4.20;;;2.50;;
26102;SDS011;32703;49.182;9.042;2022-11-12T02:14:53;4.20;;;2.57;;
26102;SDS011;32703;49.182;9.042;2022-11-12T02:17:19;3.57;;;2.00;;
26102;SDS011;32703;49.182;9.042;2022-11-12T02:19:45;4.60;;;2.83;;
26102;SDS011;32703;49.182;9.042;2022-11-12T02:22:11;2.60;;;2.27;;
26102;SDS011;32703;49.182;9.042;2022-11-12T02:24:37;3.40;;;2.03;;
26102;SDS011;32703;49.182;9.042;2022-11-12T02:27:02;1.93;;;1.67;;
26102;SDS011;32703;49.182;9.042;2022-11-12T02:29:30;3.13;;;2.07;;
26102;SDS011;32703;49.182;9.042;2022-11-12T02:31:56;2.60;;;1.77;;
26102;SDS011;32703;49.182;9.042;2022-11-12T02:34:21;2.77;;;1.97;;
26102;SDS011;32703;49.182;9.042;2022-11-12T02:36:47;4.17;;;2.00;;
26102;SDS011;32703;49.182;9.042;2022-11-12T02:39:12;3.53;;;2.10;;
26102;SDS011;32703;49.182;9.042;2022-11-12T02:41:38;2.90;;;1.70;;
26102;SDS011;32703;49.182;9.042;2022-11-12T02:44:03;2.23;;;1.80;;
26102;SDS011;32703;49.182;9.042;2022-11-12T02:46:29;2.60;;;1.60;;
26102;SDS011;32703;49.182;9.042;2022-11-12T02:48:54;2.50;;;1.50;;
26102;SDS011;32703;49.182;9.042;2022-11-12T02:51:20;2.00;;;1.70;;
26102;SDS011;32703;49.182;9.042;2022-11-12T02:53:45;1.93;;;1.50;;
26102;SDS011;32703;49.182;9.042;2022-11-12T02:56:11;3.00;;;1.80;;
26102;SDS011;32703;49.182;9.042;2022-11-12T02:58:36;1.80;;;1.50;;
26102;SDS011;32703;49.182;9.042;2022-11-12T03:01:02;2.23;;;1.47;;
26102;SDS011;32703;49.182;9.042;2022-11-12T03:03:28;2.60;;;1.60;;
26102;SDS011;32703;49.182;9.042;2022-11-12T03:05:57;2.53;;;1.70;;
26102;SDS011;32703;49.182;9.042;2022-11-12T03:08:25;2.80;;;1.60;;
26102;SDS011;32703;49.182;9.042;2022-11-12T03:10:51;2.93;;;2.20;;
26102;SDS011;32703;49.182;9.042;2022-11-12T03:13:17;3.43;;;2.13;;
26102;SDS011;32703;49.182;9.042;2022-11-12T03:15:43;3.03;;;1.97;;
26102;SDS011;32703;49.182;9.042;2022-11-12T03:18:08;2.73;;;1.77;;
26102;SDS011;32703;49.182;9.042;2022-11-12T03:20:34;2.93;;;1.90;;
26102;SDS011;32703;49.182;9.042;2022-11-12T03:23:04;2.43;;;1.63;;
26102;SDS011;32703;49.182;9.042;2022-11-12T03:25:34;3.97;;;1.97;;
26102;SDS011;32703;49.182;9.042;2022-11-12T03:28:02;1.90;;;1.40;;
26102;SDS011;32703;49.182;9.042;2022-11-12T03:30:31;4.27;;;1.77;;
26102;SDS011;32703;49.182;9.042;2022-11-12T03:32:59;2.87;;;1.67;;
26102;SDS011;32703;49.182;9.042;2022-11-12T03:35:25;1.70;;;1.43;;
26102;SDS011;32703;49.182;9.042;2022-11-12T03:37:50;2.17;;;1.40;;
26102;SDS011;32703;49.182;9.042;2022-11-12T03:40:16;2.90;;;1.63;;
26102;SDS011;32703;49.182;9.042;2022-11-12T03:42:43;3.03;;;1.77;;
26102;SDS011;32703;49.182;9.042;2022-11-12T03:45:10;2.63;;;1.63;;
26102;SDS011;32703;49.182;9.042;2022-11-12T03:47:38;3.67;;;1.70;;
26102;SDS011;32703;49.182;9.042;2022-11-12T03:50:08;2.67;;;1.83;;
26102;SDS011;32703;49.182;9.042;2022-11-12T03:52:35;2.70;;;1.97;;
26102;SDS011;32703;49.182;9.042;2022-11-12T03:55:00;2.50;;;1.60;;
26102;SDS011;32703;49.182;9.042;2022-11-12T03:57:26;1.83;;;1.60;;
26102;SDS011;32703;49.182;9.042;2022-11-12T03:59:51;2.43;;;1.60;;
26102;SDS011;32703;49.182;9.042;2022-11-12T04:02:17;2.40;;;1.80;;
26102;SDS011;32703;49.182;9.042;2022-11-12T04:04:42;2.70;;;1.70;;
26102;SDS011;32703;49.182;9.042;2022-11-12T04:07:27;2.00;;;1.53;;
26102;SDS011;32703;49.182;9.042;2022-11-12T04:10:11;3.60;;;2.20;;
26102;SDS011;32703;49.182;9.042;2022-11-12T04:12:36;2.77;;;1.97;;
26102;SDS011;32703;49.182;9.042;2022-11-12T04:15:20;3.77;;;2.07;;
26102;SDS011;32703;49.182;9.042;2022-11-12T04:17:46;2.83;;;1.77;;
26102;SDS011;32703;49.182;9.042;2022-11-12T04:20:30;2.83;;;1.90;;
26102;SDS011;32703;49.182;9.042;2022-11-12T04:23:14;2.87;;;1.60;;
26102;SDS011;32703;49.182;9.042;2022-11-12T04:25:39;2.17;;;1.57;;
26102;SDS011;32703;49.182;9.042;2022-11-12T04:28:23;2.27;;;1.53;;
26102;SDS011;32703;49.182;9.042;2022-11-12T04:30:49;3.33;;;1.90;;
26102;SDS011;32703;49.182;9.042;2022-11-12T04:33:14;3.93;;;1.80;;
26102;SDS011;32703;49.182;9.042;2022-11-12T04:35:40;2.27;;;1.60;;
26102;SDS011;32703;49.182;9.042;2022-11-12T04:38:05;2.30;;;1.60;;
26102;SDS011;32703;49.182;9.042;2022-11-12T04:40:31;2.50;;;1.93;;
26102;SDS011;32703;49.182;9.042;2022-11-12T04:43:15;3.27;;;2.00;;
26102;SDS011;32703;49.182;9.042;2022-11-12T04:46:00;2.70;;;2.10;;
26102;SDS011;32703;49.182;9.042;2022-11-12T04:48:28;2.90;;;1.90;;
26102;SDS011;32703;49.182;9.042;2022-11-12T04:51:04;5.17;;;3.10;;
26102;SDS011;32703;49.182;9.042;2022-11-12T04:53:48;4.13;;;2.13;;
26102;SDS011;32703;49.182;9.042;2022-11-12T04:56:14;3.70;;;2.13;;
26102;SDS011;32703;49.182;9.042;2022-11-12T04:58:40;3.30;;;2.10;;
26102;SDS011;32703;49.182;9.042;2022-11-12T05:01:05;3.83;;;2.17;;
26102;SDS011;32703;49.182;9.042;2022-11-12T05:03:31;3.53;;;2.17;;
26102;SDS011;32703;49.182;9.042;2022-11-12T05:06:03;3.30;;;2.17;;
26102;SDS011;32703;49.182;9.042;2022-11-12T05:08:53;4.07;;;2.43;;
26102;SDS011;32703;49.182;9.042;2022-11-12T05:11:18;3.83;;;2.20;;
26102;SDS011;32703;49.182;9.042;2022-11-12T05:13:44;3.80;;;2.13;;
26102;SDS011;32703;49.182;9.042;2022-11-12T05:16:10;4.13;;;2.47;;
26102;SDS011;32703;49.182;9.042;2022-11-12T05:18:35;4.27;;;2.37;;
26102;SDS011;32703;49.182;9.042;2022-11-12T05:21:01;3.27;;;2.23;;
26102;SDS011;32703;49.182;9.042;2022-11-12T05:23:46;3.63;;;2.20;;
26102;SDS011;32703;49.182;9.042;2022-11-12T05:26:12;3.63;;;2.53;;
26102;SDS011;32703;49.182;9.042;2022-11-12T05:28:37;3.37;;;2.20;;
26102;SDS011;32703;49.182;9.042;2022-11-12T05:31:03;5.13;;;2.50;;
26102;SDS011;32703;49.182;9.042;2022-11-12T05:33:28;3.10;;;2.07;;
26102;SDS011;32703;49.182;9.042;2022-11-12T05:35:57;2.50;;;1.70;;
26102;SDS011;32703;49.182;9.042;2022-11-12T05:38:22;3.83;;;2.50;;
26102;SDS011;32703;49.182;9.042;2022-11-12T05:40:48;3.37;;;2.30;;
26102;SDS011;32703;49.182;9.042;2022-11-12T05:43:13;2.90;;;1.87;;
26102;SDS011;32703;49.182;9.042;2022-11-12T05:45:42;5.10;;;2.90;;
26102;SDS011;32703;49.182;9.042;2022-11-12T05:48:08;3.90;;;2.30;;
26102;SDS011;32703;49.182;9.042;2022-11-12T05:50:34;2.97;;;2.13;;
26102;SDS011;32703;49.182;9.042;2022-11-12T05:52:59;4.27;;;2.13;;
26102;SDS011;32703;49.182;9.042;2022-11-12T05:55:25;4.07;;;2.77;;
26102;SDS011;32703;49.182;9.042;2022-11-12T05:57:54;4.23;;;2.20;;
26102;SDS011;32703;49.182;9.042;2022-11-12T06:00:20;3.83;;;2.10;;
26102;SDS011;32703;49.182;9.042;2022-11-12T06:02:45;3.90;;;2.03;;
26102;SDS011;32703;49.182;9.042;2022-11-12T06:05:11;2.60;;;1.83;;
26102;SDS011;32703;49.182;9.042;2022-11-12T06:07:37;2.77;;;2.37;;
26102;SDS011;32703;49.182;9.042;2022-11-12T06:10:02;3.63;;;2.23;;
26102;SDS011;32703;49.182;9.042;2022-11-12T06:12:28;2.60;;;1.70;;
26102;SDS011;32703;49.182;9.042;2022-11-12T06:14:53;4.80;;;2.10;;
26102;SDS011;32703;49.182;9.042;2022-11-12T06:17:20;7.50;;;2.30;;
26102;SDS011;32703;49.182;9.042;2022-11-12T06:19:45;3.53;;;2.27;;
26102;SDS011;32703;49.182;9.042;2022-11-12T06:22:11;2.90;;;2.00;;
26102;SDS011;32703;49.182;9.042;2022-11-12T06:24:36;3.27;;;2.40;;
26102;SDS011;32703;49.182;9.042;2022-11-12T06:27:02;3.40;;;2.13;;
26102;SDS011;32703;49.182;9.042;2022-11-12T06:29:27;4.73;;;2.33;;
26102;SDS011;32703;49.182;9.042;2022-11-12T06:31:54;2.93;;;1.87;;
26102;SDS011;32703;49.182;9.042;2022-11-12T06:34:19;3.60;;;2.50;;
26102;SDS011;32703;49.182;9.042;2022-11-12T06:36:45;2.67;;;1.80;;
26102;SDS011;32703;49.182;9.042;2022-11-12T06:39:12;3.53;;;2.03;;
26102;SDS011;32703;49.182;9.042;2022-11-12T06:41:38;5.57;;;2.00;;
26102;SDS011;32703;49.182;9.042;2022-11-12T06:44:06;3.50;;;2.03;;
26102;SDS011;32703;49.182;9.042;2022-11-12T06:46:31;5.27;;;2.20;;
26102;SDS011;32703;49.182;9.042;2022-11-12T06:48:57;4.63;;;2.20;;
26102;SDS011;32703;49.182;9.042;2022-11-12T06:51:22;3.07;;;1.70;;
26102;SDS011;32703;49.182;9.042;2022-11-12T06:53:49;4.33;;;2.47;;
26102;SDS011;32703;49.182;9.042;2022-11-12T06:56:15;5.23;;;2.03;;
26102;SDS011;32703;49.182;9.042;2022-11-12T06:58:41;4.67;;;2.40;;
26102;SDS011;32703;49.182;9.042;2022-11-12T07:03:32;3.83;;;2.17;;
26102;SDS011;32703;49.182;9.042;2022-11-12T07:06:02;3.47;;;2.30;;
26102;SDS011;32703;49.182;9.042;2022-11-12T07:08:29;3.97;;;2.10;;
26102;SDS011;32703;49.182;9.042;2022-11-12T07:10:55;3.63;;;1.73;;
26102;SDS011;32703;49.182;9.042;2022-11-12T07:13:21;4.00;;;1.97;;
26102;SDS011;32703;49.182;9.042;2022-11-12T07:15:47;4.10;;;2.13;;
26102;SDS011;32703;49.182;9.042;2022-11-12T07:18:12;4.90;;;2.20;;
26102;SDS011;32703;49.182;9.042;2022-11-12T07:20:38;3.60;;;2.50;;
26102;SDS011;32703;49.182;9.042;2022-11-12T07:23:03;5.17;;;2.90;;
26102;SDS011;32703;49.182;9.042;2022-11-12T07:25:29;4.03;;;2.60;;
26102;SDS011;32703;49.182;9.042;2022-11-12T07:27:54;5.53;;;2.90;;
26102;SDS011;32703;49.182;9.042;2022-11-12T07:30:20;6.07;;;3.33;;
26102;SDS011;32703;49.182;9.042;2022-11-12T07:32:45;5.37;;;3.03;;
26102;SDS011;32703;49.182;9.042;2022-11-12T07:35:11;5.27;;;3.17;;
26102;SDS011;32703;49.182;9.042;2022-11-12T07:37:36;7.57;;;3.67;;
26102;SDS011;32703;49.182;9.042;2022-11-12T07:40:02;5.37;;;3.23;;
26102;SDS011;32703;49.182;9.042;2022-11-12T07:42:31;7.77;;;3.07;;
26102;SDS011;32703;49.182;9.042;2022-11-12T07:44:57;10.63;;;3.13;;
26102;SDS011;32703;49.182;9.042;2022-11-12T07:47:23;3.90;;;3.03;;
26102;SDS011;32703;49.182;9.042;2022-11-12T07:49:48;5.60;;;3.10;;
26102;SDS011;32703;49.182;9.042;2022-11-12T07:52:14;4.47;;;2.60;;
26102;SDS011;32703;49.182;9.042;2022-11-12T07:54:39;5.17;;;3.40;;
26102;SDS011;32703;49.182;9.042;2022-11-12T07:57:05;6.10;;;3.60;;
26102;SDS011;32703;49.182;9.042;2022-11-12T07:59:30;7.87;;;3.37;;
26102;SDS011;32703;49.182;9.042;2022-11-12T08:01:56;7.77;;;4.13;;
26102;SDS011;32703;49.182;9.042;2022-11-12T08:04:21;4.50;;;3.03;;
26102;SDS011;32703;49.182;9.042;2022-11-12T08:06:47;6.70;;;3.80;;
26102;SDS011;32703;49.182;9.042;2022-11-12T08:09:13;8.13;;;4.60;;
26102;SDS011;32703;49.182;9.042;2022-11-12T08:11:39;5.43;;;3.23;;
26102;SDS011;32703;49.182;9.042;2022-11-12T08:14:06;5.43;;;3.30;;
26102;SDS011;32703;49.182;9.042;2022-11-12T08:16:31;6.00;;;3.40;;
26102;SDS011;32703;49.182;9.042;2022-11-12T08:18:57;5.47;;;3.30;;
26102;SDS011;32703;49.182;9.042;2022-11-12T08:21:23;5.40;;;3.57;;
26102;SDS011;32703;49.182;9.042;2022-11-12T08:23:48;5.13;;;3.63;;
26102;SDS011;32703;49.182;9.042;2022-11-12T08:26:15;5.63;;;3.57;;
26102;SDS011;32703;49.182;9.042;2022-11-12T08:28:41;7.43;;;3.93;;
26102;SDS011;32703;49.182;9.042;2022-11-12T08:31:08;7.13;;;4.00;;
26102;SDS011;32703;49.182;9.042;2022-11-12T08:33:38;10.40;;;5.47;;
26102;SDS011;32703;49.182;9.042;2022-11-12T08:36:04;8.43;;;4.43;;
26102;SDS011;32703;49.182;9.042;2022-11-12T08:38:32;8.00;;;4.40;;
26102;SDS011;32703;49.182;9.042;2022-11-12T08:40:59;6.20;;;3.37;;
26102;SDS011;32703;49.182;9.042;2022-11-12T08:43:28;5.10;;;2.83;;
26102;SDS011;32703;49.182;9.042;2022-11-12T08:45:56;5.83;;;3.20;;
26102;SDS011;32703;49.182;9.042;2022-11-12T08:48:25;3.33;;;2.50;;
26102;SDS011;32703;49.182;9.042;2022-11-12T08:50:52;3.37;;;2.60;;
26102;SDS011;32703;49.182;9.042;2022-11-12T08:53:17;3.67;;;2.60;;
26102;SDS011;32703;49.182;9.042;2022-11-12T08:55:45;4.28;;;2.38;;
26102;SDS011;32703;49.182;9.042;2022-11-12T08:58:11;4.20;;;2.78;;
26102;SDS011;32703;49.182;9.042;2022-11-12T09:00:37;4.93;;;2.72;;
26102;SDS011;32703;49.182;9.042;2022-11-12T09:03:11;5.85;;;2.65;;
26102;SDS011;32703;49.182;9.042;2022-11-12T09:05:38;4.15;;;2.90;;
26102;SDS011;32703;49.182;9.042;2022-11-12T09:08:05;3.72;;;2.58;;
26102;SDS011;32703;49.182;9.042;2022-11-12T09:10:33;5.05;;;2.65;;
26102;SDS011;32703;49.182;9.042;2022-11-12T09:12:59;3.78;;;2.30;;
26102;SDS011;32703;49.182;9.042;2022-11-12T09:15:25;3.35;;;2.20;;
26102;SDS011;32703;49.182;9.042;2022-11-12T09:17:54;4.35;;;2.47;;
26102;SDS011;32703;49.182;9.042;2022-11-12T09:20:24;3.72;;;2.15;;
26102;SDS011;32703;49.182;9.042;2022-11-12T09:22:50;4.55;;;2.55;;
26102;SDS011;32703;49.182;9.042;2022-11-12T09:25:16;3.15;;;2.22;;
26102;SDS011;32703;49.182;9.042;2022-11-12T09:27:42;3.25;;;2.40;;
26102;SDS011;32703;49.182;9.042;2022-11-12T09:30:08;4.30;;;2.38;;
26102;SDS011;32703;49.182;9.042;2022-11-12T09:32:34;5.40;;;2.95;;
26102;SDS011;32703;49.182;9.042;2022-11-12T09:35:00;4.50;;;2.30;;
26102;SDS011;32703;49.182;9.042;2022-11-12T09:37:25;3.63;;;2.47;;
26102;SDS011;32703;49.182;9.042;2022-11-12T09:39:51;5.15;;;2.40;;
26102;SDS011;32703;49.182;9.042;2022-11-12T09:42:17;10.55;;;2.25;;
26102;SDS011;32703;49.182;9.042;2022-11-12T09:44:49;4.30;;;2.30;;
26102;SDS011;32703;49.182;9.042;2022-11-12T09:47:28;13.40;;;3.03;;
26102;SDS011;32703;49.182;9.042;2022-11-12T09:53:01;4.15;;;2.38;;
26102;SDS011;32703;49.182;9.042;2022-11-12T09:55:33;4.18;;;2.45;;
26102;SDS011;32703;49.182;9.042;2022-11-12T09:58:04;6.20;;;2.78;;
26102;SDS011;32703;49.182;9.042;2022-11-12T10:00:41;3.40;;;2.35;;
26102;SDS011;32703;49.182;9.042;2022-11-12T10:11:19;2.92;;;2.17;;
26102;SDS011;32703;49.182;9.042;2022-11-12T10:13:53;4.90;;;2.05;;
26102;SDS011;32703;49.182;9.042;2022-11-12T10:16:42;4.82;;;2.50;;
26102;SDS011;32703;49.182;9.042;2022-11-12T10:22:25;3.55;;;2.25;;
26102;SDS011;32703;49.182;9.042;2022-11-12T10:25:16;3.00;;;2.35;;
26102;SDS011;32703;49.182;9.042;2022-11-12T10:27:43;3.88;;;2.72;;
26102;SDS011;32703;49.182;9.042;2022-11-12T10:30:16;3.60;;;2.58;;
26102;SDS011;32703;49.182;9.042;2022-11-12T10:32:45;4.18;;;2.67;;
26102;SDS011;32703;49.182;9.042;2022-11-12T10:35:15;4.97;;;3.13;;
26102;SDS011;32703;49.182;9.042;2022-11-12T10:37:59;5.47;;;2.70;;
26102;SDS011;32703;49.182;9.042;2022-11-12T10:43:08;6.55;;;3.38;;
26102;SDS011;32703;49.182;9.042;2022-11-12T10:45:46;4.03;;;3.08;;
26102;SDS011;32703;49.182;9.042;2022-11-12T10:48:26;5.05;;;3.10;;
26102;SDS011;32703;49.182;9.042;2022-11-12T10:50:53;4.57;;;2.85;;
26102;SDS011;32703;49.182;9.042;2022-11-12T10:56:02;4.90;;;2.65;;
26102;SDS011;32703;49.182;9.042;2022-11-12T10:58:29;8.15;;;2.40;;
26102;SDS011;32703;49.182;9.042;2022-11-12T11:03:25;4.38;;;2.50;;
26102;SDS011;32703;49.182;9.042;2022-11-12T11:06:05;5.25;;;2.65;;
26102;SDS011;32703;49.182;9.042;2022-11-12T11:08:45;5.28;;;2.97;;
26102;SDS011;32703;49.182;9.042;2022-11-12T11:11:16;4.35;;;2.75;;
26102;SDS011;32703;49.182;9.042;2022-11-12T11:13:43;4.97;;;2.97;;
26102;SDS011;32703;49.182;9.042;2022-11-12T11:16:16;5.57;;;2.95;;
26102;SDS011;32703;49.182;9.042;2022-11-12T11:18:48;5.70;;;3.17;;
26102;SDS011;32703;49.182;9.042;2022-11-12T11:21:34;5.05;;;2.65;;
26102;SDS011;32703;49.182;9.042;2022-11-12T11:27:09;3.33;;;2.45;;
26102;SDS011;32703;49.182;9.042;2022-11-12T11:43:34;4.05;;;2.53;;
26102;SDS011;32703;49.182;9.042;2022-11-12T11:46:20;5.20;;;3.15;;
26102;SDS011;32703;49.182;9.042;2022-11-12T11:49:00;4.47;;;3.15;;
26102;SDS011;32703;49.182;9.042;2022-11-12T11:51:45;4.72;;;2.60;;
26102;SDS011;32703;49.182;9.042;2022-11-12T11:54:39;3.83;;;2.60;;
26102;SDS011;32703;49.182;9.042;2022-11-12T11:57:25;5.30;;;3.10;;
26102;SDS011;32703;49.182;9.042;2022-11-12T12:00:00;5.93;;;3.10;;
26102;SDS011;32703;49.182;9.042;2022-11-12T12:05:44;4.13;;;2.53;;
26102;SDS011;32703;49.182;9.042;2022-11-12T12:08:40;6.10;;;3.35;;
26102;SDS011;32703;49.182;9.042;2022-11-12T12:11:33;4.43;;;2.70;;
26102;SDS011;32703;49.182;9.042;2022-11-12T12:14:17;8.95;;;3.20;;
26102;SDS011;32703;49.182;9.042;2022-11-12T12:19:38;4.03;;;2.65;;
26102;SDS011;32703;49.182;9.042;2022-11-12T12:25:29;6.30;;;2.85;;
26102;SDS011;32703;49.182;9.042;2022-11-12T12:28:13;3.88;;;2.75;;
26102;SDS011;32703;49.182;9.042;2022-11-12T12:30:46;4.00;;;2.28;;
26102;SDS011;32703;49.182;9.042;2022-11-12T12:33:33;3.58;;;2.80;;
26102;SDS011;32703;49.182;9.042;2022-11-12T12:36:05;2.83;;;1.92;;
26102;SDS011;32703;49.182;9.042;2022-11-12T12:38:47;6.93;;;3.25;;
26102;SDS011;32703;49.182;9.042;2022-11-12T12:41:20;6.35;;;2.90;;
26102;SDS011;32703;49.182;9.042;2022-11-12T12:43:53;4.72;;;2.45;;
26102;SDS011;32703;49.182;9.042;2022-11-12T12:46:23;4.03;;;2.65;;
26102;SDS011;32703;49.182;9.042;2022-11-12T12:48:52;3.83;;;2.47;;
26102;SDS011;32703;49.182;9.042;2022-11-12T12:51:20;5.00;;;2.53;;
26102;SDS011;32703;49.182;9.042;2022-11-12T12:53:46;6.53;;;3.47;;
26102;SDS011;32703;49.182;9.042;2022-11-12T12:58:47;5.63;;;3.00;;
26102;SDS011;32703;49.182;9.042;2022-11-12T13:09:32;9.02;;;4.22;;
26102;SDS011;32703;49.182;9.042;2022-11-12T13:32:40;4.30;;;2.75;;
26102;SDS011;32703;49.182;9.042;2022-11-12T13:37:48;8.52;;;4.25;;
26102;SDS011;32703;49.182;9.042;2022-11-12T13:43:46;11.35;;;6.10;;
26102;SDS011;32703;49.182;9.042;2022-11-12T13:53:55;4.25;;;2.70;;
26102;SDS011;32703;49.182;9.042;2022-11-12T13:56:28;4.03;;;2.90;;
26102;SDS011;32703;49.182;9.042;2022-11-12T13:59:09;4.82;;;2.80;;
26102;SDS011;32703;49.182;9.042;2022-11-12T14:01:37;4.90;;;3.33;;
26102;SDS011;32703;49.182;9.042;2022-11-12T14:04:05;4.72;;;2.78;;
26102;SDS011;32703;49.182;9.042;2022-11-12T14:06:37;4.07;;;2.90;;
26102;SDS011;32703;49.182;9.042;2022-11-12T14:22:44;3.95;;;2.38;;
26102;SDS011;32703;49.182;9.042;2022-11-12T14:25:15;3.72;;;2.70;;
26102;SDS011;32703;49.182;9.042;2022-11-12T14:27:41;4.03;;;2.75;;
26102;SDS011;32703;49.182;9.042;2022-11-12T14:32:36;5.18;;;2.88;;
26102;SDS011;32703;49.182;9.042;2022-11-12T14:35:20;5.30;;;3.40;;
26102;SDS011;32703;49.182;9.042;2022-11-12T14:37:56;3.97;;;2.53;;
26102;SDS011;32703;49.182;9.042;2022-11-12T14:40:30;4.57;;;2.83;;
26102;SDS011;32703;49.182;9.042;2022-11-12T14:42:57;5.43;;;3.65;;
26102;SDS011;32703;49.182;9.042;2022-11-12T14:45:23;3.75;;;2.78;;
26102;SDS011;32703;49.182;9.042;2022-11-12T14:47:50;3.75;;;2.60;;
26102;SDS011;32703;49.182;9.042;2022-11-12T14:50:28;6.38;;;3.22;;
26102;SDS011;32703;49.182;9.042;2022-11-12T14:53:03;4.32;;;2.80;;
26102;SDS011;32703;49.182;9.042;2022-11-12T14:55:34;3.58;;;2.75;;
26102;SDS011;32703;49.182;9.042;2022-11-12T14:58:01;3.92;;;2.47;;
26102;SDS011;32703;49.182;9.042;2022-11-12T15:02:54;6.30;;;2.60;;
26102;SDS011;32703;49.182;9.042;2022-11-12T15:05:20;5.70;;;2.47;;
26102;SDS011;32703;49.182;9.042;2022-11-12T15:13:07;3.58;;;2.35;;
26102;SDS011;32703;49.182;9.042;2022-11-12T15:15:55;5.65;;;3.03;;
26102;SDS011;32703;49.182;9.042;2022-11-12T15:18:28;2.88;;;2.05;;
26102;SDS011;32703;49.182;9.042;2022-11-12T15:21:05;3.20;;;2.40;;
26102;SDS011;32703;49.182;9.042;2022-11-12T15:26:44;5.28;;;3.03;;
26102;SDS011;32703;49.182;9.042;2022-11-12T15:31:54;4.43;;;2.38;;
26102;SDS011;32703;49.182;9.042;2022-11-12T15:37:23;3.75;;;2.67;;
26102;SDS011;32703;49.182;9.042;2022-11-12T15:39:54;3.28;;;2.45;;
26102;SDS011;32703;49.182;9.042;2022-11-12T15:44:59;3.00;;;2.05;;
26102;SDS011;32703;49.182;9.042;2022-11-12T15:47:26;3.53;;;2.22;;
26102;SDS011;32703;49.182;9.042;2022-11-12T15:49:53;4.15;;;2.55;;
26102;SDS011;32703;49.182;9.042;2022-11-12T15:52:20;3.60;;;2.13;;
26102;SDS011;32703;49.182;9.042;2022-11-12T15:54:46;3.65;;;2.17;;
26102;SDS011;32703;49.182;9.042;2022-11-12T15:57:13;3.20;;;1.70;;
26102;SDS011;32703;49.182;9.042;2022-11-12T15:59:42;4.32;;;2.75;;
26102;SDS011;32703;49.182;9.042;2022-11-12T16:02:11;6.05;;;3.10;;
26102;SDS011;32703;49.182;9.042;2022-11-12T16:04:38;5.30;;;2.58;;
26102;SDS011;32703;49.182;9.042;2022-11-12T16:07:03;4.32;;;2.67;;
26102;SDS011;32703;49.182;9.042;2022-11-12T16:09:31;4.77;;;2.77;;
26102;SDS011;32703;49.182;9.042;2022-11-12T16:11:57;5.22;;;2.97;;
26102;SDS011;32703;49.182;9.042;2022-11-12T16:14:22;7.40;;;2.63;;
26102;SDS011;32703;49.182;9.042;2022-11-12T16:16:48;4.13;;;2.87;;
26102;SDS011;32703;49.182;9.042;2022-11-12T16:19:14;6.60;;;2.37;;
26102;SDS011;32703;49.182;9.042;2022-11-12T16:21:40;4.83;;;2.70;;
26102;SDS011;32703;49.182;9.042;2022-11-12T16:24:06;4.90;;;3.10;;
26102;SDS011;32703;49.182;9.042;2022-11-12T16:26:32;6.43;;;3.13;;
26102;SDS011;32703;49.182;9.042;2022-11-12T16:28:58;9.87;;;4.10;;
26102;SDS011;32703;49.182;9.042;2022-11-12T16:31:24;13.60;;;4.30;;
26102;SDS011;32703;49.182;9.042;2022-11-12T16:33:50;11.97;;;5.30;;
26102;SDS011;32703;49.182;9.042;2022-11-12T16:36:16;7.77;;;3.40;;
26102;SDS011;32703;49.182;9.042;2022-11-12T16:38:41;7.73;;;4.03;;
26102;SDS011;32703;49.182;9.042;2022-11-12T16:41:11;6.73;;;3.33;;
26102;SDS011;32703;49.182;9.042;2022-11-12T16:43:37;4.70;;;3.00;;
26102;SDS011;32703;49.182;9.042;2022-11-12T16:46:14;7.10;;;3.47;;
26102;SDS011;32703;49.182;9.042;2022-11-12T16:48:50;5.93;;;3.33;;
26102;SDS011;32703;49.182;9.042;2022-11-12T16:51:16;7.53;;;4.03;;
26102;SDS011;32703;49.182;9.042;2022-11-12T16:53:43;5.70;;;3.70;;
26102;SDS011;32703;49.182;9.042;2022-11-12T16:56:10;6.23;;;3.63;;
26102;SDS011;32703;49.182;9.042;2022-11-12T16:58:43;5.93;;;3.37;;
26102;SDS011;32703;49.182;9.042;2022-11-12T17:01:11;4.43;;;2.70;;
26102;SDS011;32703;49.182;9.042;2022-11-12T17:03:58;4.80;;;3.03;;
26102;SDS011;32703;49.182;9.042;2022-11-12T17:06:34;5.90;;;3.17;;
26102;SDS011;32703;49.182;9.042;2022-11-12T17:09:05;3.43;;;2.40;;
26102;SDS011;32703;49.182;9.042;2022-11-12T17:11:32;3.80;;;2.80;;
26102;SDS011;32703;49.182;9.042;2022-11-12T17:13:59;4.73;;;3.00;;